sensor_id;sensor_type;location;lat;lon;timestamp;pressure;altitude;pressure_sealevel;temperature;humidity
46412;BME280;32113;42.012;24.870;2023-03-26T00:00:36;98278.50;;;16.11;58.17
46412;BME280;32113;42.012;24.870;2023-03-26T00:03:03;98283.59;;;16.13;58.10
46412;BME280;32113;42.012;24.870;2023-03-26T00:05:29;98277.44;;;16.15;58.15
46412;BME280;32113;42.012;24.870;2023-03-26T00:07:56;98285.13;;;16.17;57.89
46412;BME280;32113;42.012;24.870;2023-03-26T00:10:22;98277.31;;;16.19;57.77
46412;BME280;32113;42.012;24.870;2023-03-26T00:12:47;98273.75;;;16.21;58.33
46412;BME280;32113;42.012;24.870;2023-03-26T00:15:12;98278.22;;;16.18;58.56
46412;BME280;32113;42.012;24.870;2023-03-26T00:17:38;98281.78;;;16.15;59.04
46412;BME280;32113;42.012;24.870;2023-03-26T00:20:03;98290.66;;;16.09;59.88
46412;BME280;32113;42.012;24.870;2023-03-26T00:22:29;98287.31;;;16.07;60.85
46412;BME280;32113;42.012;24.870;2023-03-26T00:24:54;98280.78;;;15.98;61.71
46412;BME280;32113;42.012;24.870;2023-03-26T00:27:21;98279.31;;;15.93;62.43
46412;BME280;32113;42.012;24.870;2023-03-26T00:29:47;98282.16;;;15.86;62.79
46412;BME280;32113;42.012;24.870;2023-03-26T00:32:13;98284.63;;;15.89;63.10
46412;BME280;32113;42.012;24.870;2023-03-26T00:34:38;98288.94;;;15.89;63.05
46412;BME280;32113;42.012;24.870;2023-03-26T00:37:06;98278.47;;;15.92;62.81
46412;BME280;32113;42.012;24.870;2023-03-26T00:39:33;98275.84;;;15.94;62.51
46412;BME280;32113;42.012;24.870;2023-03-26T00:42:02;98264.78;;;15.90;62.36
46412;BME280;32113;42.012;24.870;2023-03-26T00:44:32;98268.47;;;15.84;62.64
46412;BME280;32113;42.012;24.870;2023-03-26T00:46:58;98262.50;;;15.82;62.39
46412;BME280;32113;42.012;24.870;2023-03-26T00:49:23;98261.81;;;15.79;61.79
46412;BME280;32113;42.012;24.870;2023-03-26T00:51:51;98254.41;;;15.71;61.26
46412;BME280;32113;42.012;24.870;2023-03-26T00:54:17;98255.00;;;15.57;59.10
46412;BME280;32113;42.012;24.870;2023-03-26T00:56:42;98252.13;;;15.23;58.58
46412;BME280;32113;42.012;24.870;2023-03-26T00:59:08;98263.38;;;14.79;59.37
46412;BME280;32113;42.012;24.870;2023-03-26T01:01:33;98262.22;;;14.64;60.43
46412;BME280;32113;42.012;24.870;2023-03-26T01:04:30;98262.63;;;14.77;60.51
46412;BME280;32113;42.012;24.870;2023-03-26T01:07:02;98262.06;;;14.91;60.37
46412;BME280;32113;42.012;24.870;2023-03-26T01:09:35;98255.38;;;15.07;59.46
46412;BME280;32113;42.012;24.870;2023-03-26T01:12:10;98254.88;;;15.18;59.10
46412;BME280;32113;42.012;24.870;2023-03-26T01:14:38;98256.84;;;15.34;58.48
46412;BME280;32113;42.012;24.870;2023-03-26T01:17:05;98256.25;;;15.27;56.62
46412;BME280;32113;42.012;24.870;2023-03-26T01:22:04;98263.59;;;15.16;56.40
46412;BME280;32113;42.012;24.870;2023-03-26T01:24:29;98256.59;;;15.19;56.83
46412;BME280;32113;42.012;24.870;2023-03-26T01:32:04;98270.53;;;15.36;56.25
46412;BME280;32113;42.012;24.870;2023-03-26T01:39:57;98294.91;;;15.70;57.76
46412;BME280;32113;42.012;24.870;2023-03-26T01:42:36;98309.47;;;15.73;59.25
46412;BME280;32113;42.012;24.870;2023-03-26T01:45:13;98309.22;;;15.79;59.63
46412;BME280;32113;42.012;24.870;2023-03-26T01:47:41;98303.31;;;15.75;59.93
46412;BME280;32113;42.012;24.870;2023-03-26T01:50:07;98310.44;;;15.70;59.97
46412;BME280;32113;42.012;24.870;2023-03-26T01:52:33;98315.13;;;15.62;60.52
46412;BME280;32113;42.012;24.870;2023-03-26T01:54:58;98314.47;;;15.57;60.49
46412;BME280;32113;42.012;24.870;2023-03-26T01:57:35;98300.31;;;15.45;59.89
46412;BME280;32113;42.012;24.870;2023-03-26T02:00:31;98311.16;;;15.53;60.25
46412;BME280;32113;42.012;24.870;2023-03-26T02:06:19;98308.53;;;15.34;57.11
46412;BME280;32113;42.012;24.870;2023-03-26T02:08:50;98304.00;;;15.39;56.08
46412;BME280;32113;42.012;24.870;2023-03-26T02:11:17;98302.34;;;15.38;54.17
46412;BME280;32113;42.012;24.870;2023-03-26T02:13:44;98301.28;;;15.42;53.29
46412;BME280;32113;42.012;24.870;2023-03-26T02:16:13;98300.00;;;15.53;52.48
46412;BME280;32113;42.012;24.870;2023-03-26T02:18:39;98305.03;;;15.56;51.01
46412;BME280;32113;42.012;24.870;2023-03-26T02:21:19;98301.13;;;15.66;50.88
46412;BME280;32113;42.012;24.870;2023-03-26T02:23:47;98305.34;;;15.69;49.67
46412;BME280;32113;42.012;24.870;2023-03-26T02:26:17;98296.34;;;15.77;48.96
46412;BME280;32113;42.012;24.870;2023-03-26T02:28:43;98302.16;;;15.83;48.36
46412;BME280;32113;42.012;24.870;2023-03-26T02:31:09;98295.81;;;15.90;48.21
46412;BME280;32113;42.012;24.870;2023-03-26T02:33:35;98292.66;;;15.83;47.35
46412;BME280;32113;42.012;24.870;2023-03-26T02:36:01;98305.25;;;15.91;47.22
46412;BME280;32113;42.012;24.870;2023-03-26T02:38:28;98300.06;;;15.91;47.36
46412;BME280;32113;42.012;24.870;2023-03-26T02:40:54;98296.53;;;15.94;46.61
46412;BME280;32113;42.012;24.870;2023-03-26T02:43:21;98301.03;;;15.88;46.33
46412;BME280;32113;42.012;24.870;2023-03-26T02:45:46;98306.91;;;15.92;45.82
46412;BME280;32113;42.012;24.870;2023-03-26T02:48:12;98306.66;;;15.98;45.39
46412;BME280;32113;42.012;24.870;2023-03-26T02:50:39;98318.22;;;16.10;44.71
46412;BME280;32113;42.012;24.870;2023-03-26T02:53:05;98300.38;;;16.04;44.87
46412;BME280;32113;42.012;24.870;2023-03-26T02:55:30;98310.84;;;16.01;44.05
46412;BME280;32113;42.012;24.870;2023-03-26T02:57:56;98317.81;;;16.00;43.90
46412;BME280;32113;42.012;24.870;2023-03-26T03:00:21;98318.72;;;15.79;43.89
46412;BME280;32113;42.012;24.870;2023-03-26T03:02:48;98339.47;;;15.77;43.73
46412;BME280;32113;42.012;24.870;2023-03-26T03:05:13;98327.91;;;15.65;44.33
46412;BME280;32113;42.012;24.870;2023-03-26T03:07:39;98322.72;;;15.65;43.72
46412;BME280;32113;42.012;24.870;2023-03-26T03:10:06;98326.88;;;15.69;43.82
46412;BME280;32113;42.012;24.870;2023-03-26T03:12:40;98330.53;;;15.63;43.52
46412;BME280;32113;42.012;24.870;2023-03-26T03:15:06;98335.88;;;15.60;43.06
46412;BME280;32113;42.012;24.870;2023-03-26T03:17:32;98343.47;;;15.63;43.09
46412;BME280;32113;42.012;24.870;2023-03-26T03:19:58;98340.19;;;15.81;43.00
46412;BME280;32113;42.012;24.870;2023-03-26T03:22:23;98347.66;;;15.87;42.55
46412;BME280;32113;42.012;24.870;2023-03-26T03:24:48;98347.38;;;15.95;42.49
46412;BME280;32113;42.012;24.870;2023-03-26T03:27:16;98347.03;;;15.82;42.46
46412;BME280;32113;42.012;24.870;2023-03-26T03:29:43;98343.66;;;15.80;42.22
46412;BME280;32113;42.012;24.870;2023-03-26T03:32:09;98340.50;;;15.52;42.58
46412;BME280;32113;42.012;24.870;2023-03-26T03:34:34;98347.34;;;15.32;43.30
46412;BME280;32113;42.012;24.870;2023-03-26T03:37:03;98356.25;;;15.25;43.29
46412;BME280;32113;42.012;24.870;2023-03-26T03:39:28;98360.50;;;15.26;43.16
46412;BME280;32113;42.012;24.870;2023-03-26T03:41:54;98358.19;;;15.20;43.83
46412;BME280;32113;42.012;24.870;2023-03-26T03:44:19;98367.00;;;15.14;44.08
46412;BME280;32113;42.012;24.870;2023-03-26T03:46:45;98373.69;;;15.20;44.40
46412;BME280;32113;42.012;24.870;2023-03-26T03:49:13;98376.28;;;15.20;44.21
46412;BME280;32113;42.012;24.870;2023-03-26T03:51:38;98383.00;;;15.24;43.89
46412;BME280;32113;42.012;24.870;2023-03-26T03:54:05;98372.97;;;15.16;44.17
46412;BME280;32113;42.012;24.870;2023-03-26T03:56:30;98384.34;;;15.12;44.56
46412;BME280;32113;42.012;24.870;2023-03-26T03:58:56;98388.41;;;14.95;44.73
46412;BME280;32113;42.012;24.870;2023-03-26T04:01:22;98391.13;;;14.92;44.96
46412;BME280;32113;42.012;24.870;2023-03-26T04:03:48;98391.91;;;14.94;45.23
46412;BME280;32113;42.012;24.870;2023-03-26T04:06:13;98404.00;;;14.94;45.35
46412;BME280;32113;42.012;24.870;2023-03-26T04:08:44;98396.50;;;14.86;45.55
46412;BME280;32113;42.012;24.870;2023-03-26T04:11:10;98403.81;;;14.75;45.30
46412;BME280;32113;42.012;24.870;2023-03-26T04:13:35;98410.69;;;14.76;45.36
46412;BME280;32113;42.012;24.870;2023-03-26T04:16:01;98409.66;;;14.80;45.42
46412;BME280;32113;42.012;24.870;2023-03-26T04:18:26;98419.88;;;14.83;45.60
46412;BME280;32113;42.012;24.870;2023-03-26T04:20:53;98420.78;;;14.82;45.67
46412;BME280;32113;42.012;24.870;2023-03-26T04:23:20;98406.94;;;14.84;45.30
46412;BME280;32113;42.012;24.870;2023-03-26T04:25:51;98410.13;;;14.91;44.97
46412;BME280;32113;42.012;24.870;2023-03-26T04:28:32;98411.44;;;14.79;45.27
46412;BME280;32113;42.012;24.870;2023-03-26T04:31:00;98411.25;;;14.84;45.16
46412;BME280;32113;42.012;24.870;2023-03-26T04:33:32;98409.63;;;14.81;45.18
46412;BME280;32113;42.012;24.870;2023-03-26T04:35:59;98413.09;;;14.80;45.35
46412;BME280;32113;42.012;24.870;2023-03-26T04:38:29;98411.00;;;14.90;45.27
46412;BME280;32113;42.012;24.870;2023-03-26T04:40:58;98409.56;;;14.83;44.78
46412;BME280;32113;42.012;24.870;2023-03-26T04:43:24;98414.59;;;14.86;44.96
46412;BME280;32113;42.012;24.870;2023-03-26T04:45:51;98417.88;;;14.67;44.92
46412;BME280;32113;42.012;24.870;2023-03-26T04:48:17;98408.41;;;14.66;45.15
46412;BME280;32113;42.012;24.870;2023-03-26T04:50:45;98412.00;;;14.62;45.16
46412;BME280;32113;42.012;24.870;2023-03-26T04:53:15;98413.97;;;14.55;45.41
46412;BME280;32113;42.012;24.870;2023-03-26T04:55:46;98422.28;;;14.64;45.48
46412;BME280;32113;42.012;24.870;2023-03-26T04:58:13;98431.66;;;14.66;45.57
46412;BME280;32113;42.012;24.870;2023-03-26T05:00:40;98444.78;;;14.60;45.99
46412;BME280;32113;42.012;24.870;2023-03-26T05:03:09;98442.44;;;14.54;46.18
46412;BME280;32113;42.012;24.870;2023-03-26T05:05:35;98438.06;;;14.56;46.13
46412;BME280;32113;42.012;24.870;2023-03-26T05:08:01;98439.06;;;14.52;46.01
46412;BME280;32113;42.012;24.870;2023-03-26T05:10:26;98443.06;;;14.61;46.34
46412;BME280;32113;42.012;24.870;2023-03-26T05:12:52;98457.13;;;14.52;45.54
46412;BME280;32113;42.012;24.870;2023-03-26T05:15:17;98460.63;;;14.51;45.67
46412;BME280;32113;42.012;24.870;2023-03-26T05:17:43;98464.72;;;14.56;46.36
46412;BME280;32113;42.012;24.870;2023-03-26T05:20:26;98471.72;;;14.53;45.92
46412;BME280;32113;42.012;24.870;2023-03-26T05:22:52;98481.22;;;14.52;46.31
46412;BME280;32113;42.012;24.870;2023-03-26T05:25:18;98468.59;;;14.44;46.15
46412;BME280;32113;42.012;24.870;2023-03-26T05:27:44;98465.78;;;14.51;46.55
46412;BME280;32113;42.012;24.870;2023-03-26T05:30:13;98472.13;;;14.66;46.05
46412;BME280;32113;42.012;24.870;2023-03-26T05:32:39;98472.66;;;14.74;45.74
46412;BME280;32113;42.012;24.870;2023-03-26T05:35:05;98482.78;;;14.82;45.95
46412;BME280;32113;42.012;24.870;2023-03-26T05:37:31;98476.97;;;14.75;45.68
46412;BME280;32113;42.012;24.870;2023-03-26T05:39:57;98480.97;;;14.84;45.59
46412;BME280;32113;42.012;24.870;2023-03-26T05:42:25;98488.72;;;14.84;45.52
46412;BME280;32113;42.012;24.870;2023-03-26T05:44:51;98491.28;;;14.84;45.75
46412;BME280;32113;42.012;24.870;2023-03-26T05:47:16;98507.19;;;14.71;46.05
46412;BME280;32113;42.012;24.870;2023-03-26T05:49:42;98509.22;;;14.63;46.74
46412;BME280;32113;42.012;24.870;2023-03-26T05:52:07;98509.59;;;14.52;46.73
46412;BME280;32113;42.012;24.870;2023-03-26T05:54:33;98521.78;;;14.49;47.10
46412;BME280;32113;42.012;24.870;2023-03-26T05:56:58;98525.09;;;14.52;47.35
46412;BME280;32113;42.012;24.870;2023-03-26T05:59:25;98536.38;;;14.50;47.30
46412;BME280;32113;42.012;24.870;2023-03-26T06:01:50;98530.66;;;14.65;47.51
46412;BME280;32113;42.012;24.870;2023-03-26T06:04:19;98519.28;;;14.71;47.60
46412;BME280;32113;42.012;24.870;2023-03-26T06:06:45;98561.97;;;14.56;47.65
46412;BME280;32113;42.012;24.870;2023-03-26T06:09:11;98541.69;;;14.45;47.99
46412;BME280;32113;42.012;24.870;2023-03-26T06:11:38;98550.50;;;14.39;48.22
46412;BME280;32113;42.012;24.870;2023-03-26T06:14:04;98552.13;;;14.42;48.44
46412;BME280;32113;42.012;24.870;2023-03-26T06:16:30;98556.66;;;14.35;48.27
46412;BME280;32113;42.012;24.870;2023-03-26T06:18:56;98550.59;;;14.36;47.91
46412;BME280;32113;42.012;24.870;2023-03-26T06:21:22;98555.88;;;14.31;48.28
46412;BME280;32113;42.012;24.870;2023-03-26T06:23:47;98563.53;;;14.35;48.26
46412;BME280;32113;42.012;24.870;2023-03-26T06:26:13;98566.03;;;14.38;48.09
46412;BME280;32113;42.012;24.870;2023-03-26T06:28:39;98567.53;;;14.43;48.52
46412;BME280;32113;42.012;24.870;2023-03-26T06:31:05;98572.38;;;14.53;48.63
46412;BME280;32113;42.012;24.870;2023-03-26T06:33:31;98571.59;;;14.51;48.44
46412;BME280;32113;42.012;24.870;2023-03-26T06:35:56;98582.84;;;14.50;48.61
46412;BME280;32113;42.012;24.870;2023-03-26T06:38:22;98578.63;;;14.47;48.58
46412;BME280;32113;42.012;24.870;2023-03-26T06:40:47;98569.94;;;14.50;45.80
46412;BME280;32113;42.012;24.870;2023-03-26T06:43:13;98573.25;;;14.53;45.72
46412;BME280;32113;42.012;24.870;2023-03-26T06:45:38;98564.44;;;14.59;45.28
46412;BME280;32113;42.012;24.870;2023-03-26T06:48:04;98560.59;;;14.71;46.25
46412;BME280;32113;42.012;24.870;2023-03-26T06:50:30;98555.09;;;14.82;45.63
46412;BME280;32113;42.012;24.870;2023-03-26T06:52:57;98565.72;;;14.98;43.96
46412;BME280;32113;42.012;24.870;2023-03-26T06:55:22;98569.13;;;14.98;43.39
46412;BME280;32113;42.012;24.870;2023-03-26T06:57:49;98570.13;;;14.94;43.22
46412;BME280;32113;42.012;24.870;2023-03-26T07:00:15;98571.41;;;14.82;43.37
46412;BME280;32113;42.012;24.870;2023-03-26T07:02:41;98565.41;;;14.82;44.11
46412;BME280;32113;42.012;24.870;2023-03-26T07:05:07;98574.38;;;14.95;44.22
46412;BME280;32113;42.012;24.870;2023-03-26T07:07:32;98575.88;;;15.03;44.59
46412;BME280;32113;42.012;24.870;2023-03-26T07:09:58;98567.44;;;14.97;44.25
46412;BME280;32113;42.012;24.870;2023-03-26T07:12:24;98575.88;;;15.03;44.24
46412;BME280;32113;42.012;24.870;2023-03-26T07:14:50;98597.19;;;15.08;43.54
46412;BME280;32113;42.012;24.870;2023-03-26T07:17:16;98591.06;;;15.10;42.94
46412;BME280;32113;42.012;24.870;2023-03-26T07:19:41;98586.63;;;15.14;42.01
46412;BME280;32113;42.012;24.870;2023-03-26T07:22:14;98591.97;;;15.33;41.32
46412;BME280;32113;42.012;24.870;2023-03-26T07:24:45;98591.53;;;15.46;41.39
46412;BME280;32113;42.012;24.870;2023-03-26T07:35:27;98582.91;;;15.45;40.61
46412;BME280;32113;42.012;24.870;2023-03-26T07:40:45;98576.38;;;15.59;40.52
46412;BME280;32113;42.012;24.870;2023-03-26T07:46:01;98573.75;;;15.60;40.45
46412;BME280;32113;42.012;24.870;2023-03-26T07:48:33;98577.69;;;15.69;41.35
46412;BME280;32113;42.012;24.870;2023-03-26T07:51:05;98579.00;;;15.80;41.67
46412;BME280;32113;42.012;24.870;2023-03-26T07:53:31;98582.03;;;15.91;41.55
46412;BME280;32113;42.012;24.870;2023-03-26T08:01:21;98560.03;;;16.24;41.15
46412;BME280;32113;42.012;24.870;2023-03-26T08:06:47;98565.31;;;16.43;39.67
46412;BME280;32113;42.012;24.870;2023-03-26T08:09:25;98562.72;;;16.43;40.36
46412;BME280;32113;42.012;24.870;2023-03-26T08:17:29;98554.84;;;16.65;39.89
46412;BME280;32113;42.012;24.870;2023-03-26T08:31:08;98533.25;;;16.86;37.78
46412;BME280;32113;42.012;24.870;2023-03-26T08:33:35;98543.00;;;16.80;38.05
46412;BME280;32113;42.012;24.870;2023-03-26T08:36:00;98526.25;;;16.88;38.42
46412;BME280;32113;42.012;24.870;2023-03-26T08:38:26;98523.25;;;16.97;39.09
46412;BME280;32113;42.012;24.870;2023-03-26T08:57:44;98518.13;;;18.25;35.22
46412;BME280;32113;42.012;24.870;2023-03-26T09:00:34;98525.34;;;18.54;34.54
46412;BME280;32113;42.012;24.870;2023-03-26T09:14:49;98508.09;;;19.51;32.30
46412;BME280;32113;42.012;24.870;2023-03-26T09:48:46;98491.69;;;20.99;25.85
46412;BME280;32113;42.012;24.870;2023-03-26T09:56:53;98470.53;;;21.04;23.62
46412;BME280;32113;42.012;24.870;2023-03-26T10:13:28;98471.66;;;21.55;23.81
46412;BME280;32113;42.012;24.870;2023-03-26T10:19:01;98463.28;;;21.77;23.45
46412;BME280;32113;42.012;24.870;2023-03-26T10:21:42;98461.94;;;21.72;23.22
46412;BME280;32113;42.012;24.870;2023-03-26T10:24:42;98449.28;;;21.78;23.30
46412;BME280;32113;42.012;24.870;2023-03-26T10:41:05;98435.31;;;21.79;22.12
46412;BME280;32113;42.012;24.870;2023-03-26T10:52:08;98411.41;;;21.99;20.77
46412;BME280;32113;42.012;24.870;2023-03-26T10:57:24;98420.19;;;21.85;19.81
46412;BME280;32113;42.012;24.870;2023-03-26T10:59:54;98411.09;;;21.90;20.20
46412;BME280;32113;42.012;24.870;2023-03-26T11:02:27;98399.28;;;21.98;20.61
46412;BME280;32113;42.012;24.870;2023-03-26T11:05:00;98410.78;;;22.08;19.13
46412;BME280;32113;42.012;24.870;2023-03-26T11:12:36;98393.53;;;22.31;19.42
46412;BME280;32113;42.012;24.870;2023-03-26T11:33:40;98379.13;;;21.87;20.05
46412;BME280;32113;42.012;24.870;2023-03-26T11:36:11;98376.31;;;22.03;20.27
46412;BME280;32113;42.012;24.870;2023-03-26T11:38:43;98371.38;;;22.24;19.60
46412;BME280;32113;42.012;24.870;2023-03-26T11:41:17;98373.81;;;22.14;19.82
46412;BME280;32113;42.012;24.870;2023-03-26T11:43:48;98372.13;;;22.26;20.35
46412;BME280;32113;42.012;24.870;2023-03-26T11:46:18;98367.16;;;22.35;19.55
46412;BME280;32113;42.012;24.870;2023-03-26T11:48:48;98364.84;;;22.43;19.21
46412;BME280;32113;42.012;24.870;2023-03-26T11:51:32;98351.22;;;22.26;19.65
46412;BME280;32113;42.012;24.870;2023-03-26T11:53:59;98350.56;;;22.23;19.72
46412;BME280;32113;42.012;24.870;2023-03-26T11:56:42;98349.06;;;22.44;20.83
46412;BME280;32113;42.012;24.870;2023-03-26T11:59:15;98353.00;;;22.63;19.64
46412;BME280;32113;42.012;24.870;2023-03-26T12:02:15;98347.72;;;22.39;19.00
46412;BME280;32113;42.012;24.870;2023-03-26T12:04:43;98345.81;;;22.54;19.13
46412;BME280;32113;42.012;24.870;2023-03-26T12:07:22;98339.72;;;22.53;19.00
46412;BME280;32113;42.012;24.870;2023-03-26T12:09:57;98330.56;;;22.35;19.07
46412;BME280;32113;42.012;24.870;2023-03-26T12:12:25;98337.38;;;22.37;18.98
46412;BME280;32113;42.012;24.870;2023-03-26T12:14:51;98339.88;;;22.39;19.51
46412;BME280;32113;42.012;24.870;2023-03-26T12:17:33;98333.38;;;22.57;20.29
46412;BME280;32113;42.012;24.870;2023-03-26T12:19:59;98343.66;;;22.72;19.97
46412;BME280;32113;42.012;24.870;2023-03-26T12:22:38;98340.38;;;22.57;19.66
46412;BME280;32113;42.012;24.870;2023-03-26T12:25:16;98344.13;;;22.53;19.20
46412;BME280;32113;42.012;24.870;2023-03-26T12:27:44;98336.72;;;22.47;18.56
46412;BME280;32113;42.012;24.870;2023-03-26T12:30:33;98340.16;;;22.60;19.09
46412;BME280;32113;42.012;24.870;2023-03-26T12:33:01;98325.53;;;22.57;19.37
46412;BME280;32113;42.012;24.870;2023-03-26T12:35:30;98321.94;;;22.72;19.42
46412;BME280;32113;42.012;24.870;2023-03-26T12:41:17;98321.25;;;22.81;19.60
46412;BME280;32113;42.012;24.870;2023-03-26T12:43:48;98317.78;;;22.56;19.48
46412;BME280;32113;42.012;24.870;2023-03-26T12:46:27;98301.06;;;22.45;20.12
46412;BME280;32113;42.012;24.870;2023-03-26T12:48:57;98297.72;;;22.56;19.91
46412;BME280;32113;42.012;24.870;2023-03-26T12:54:18;98290.38;;;22.86;19.98
46412;BME280;32113;42.012;24.870;2023-03-26T12:57:07;98300.16;;;22.95;19.07
46412;BME280;32113;42.012;24.870;2023-03-26T13:05:36;98271.06;;;23.12;18.57
46412;BME280;32113;42.012;24.870;2023-03-26T13:19:05;98259.97;;;22.96;18.52
46412;BME280;32113;42.012;24.870;2023-03-26T13:25:25;98245.94;;;22.97;17.86
46412;BME280;32113;42.012;24.870;2023-03-26T13:30:01;98238.66;;;22.78;18.34
46412;BME280;32113;42.012;24.870;2023-03-26T13:40:28;98231.47;;;23.16;17.87
46412;BME280;32113;42.012;24.870;2023-03-26T13:45:59;98226.44;;;23.49;18.00
46412;BME280;32113;42.012;24.870;2023-03-26T13:48:37;98228.44;;;23.57;17.31
46412;BME280;32113;42.012;24.870;2023-03-26T13:51:15;98230.34;;;23.55;17.45
46412;BME280;32113;42.012;24.870;2023-03-26T13:53:56;98232.16;;;23.54;17.70
46412;BME280;32113;42.012;24.870;2023-03-26T13:56:29;98227.16;;;23.62;17.89
46412;BME280;32113;42.012;24.870;2023-03-26T13:59:00;98227.38;;;23.48;17.52
46412;BME280;32113;42.012;24.870;2023-03-26T14:01:35;98225.56;;;23.60;17.63
46412;BME280;32113;42.012;24.870;2023-03-26T14:06:58;98227.84;;;23.76;17.39
46412;BME280;32113;42.012;24.870;2023-03-26T14:09:59;98232.84;;;23.68;17.72
46412;BME280;32113;42.012;24.870;2023-03-26T14:15:26;98231.28;;;23.77;17.71
46412;BME280;32113;42.012;24.870;2023-03-26T14:26:43;98224.72;;;23.94;17.81
46412;BME280;32113;42.012;24.870;2023-03-26T14:53:47;98215.22;;;23.93;17.49
46412;BME280;32113;42.012;24.870;2023-03-26T15:16:53;98186.19;;;23.61;16.45
46412;BME280;32113;42.012;24.870;2023-03-26T15:31:10;98184.56;;;23.49;16.25
46412;BME280;32113;42.012;24.870;2023-03-26T15:36:53;98192.75;;;23.56;16.30
46412;BME280;32113;42.012;24.870;2023-03-26T15:45:43;98187.84;;;23.28;17.29
46412;BME280;32113;42.012;24.870;2023-03-26T15:56:02;98190.31;;;22.95;18.70
46412;BME280;32113;42.012;24.870;2023-03-26T16:01:24;98200.88;;;22.82;18.80
46412;BME280;32113;42.012;24.870;2023-03-26T16:04:21;98207.28;;;22.78;18.92
46412;BME280;32113;42.012;24.870;2023-03-26T16:06:59;98210.31;;;22.72;19.17
46412;BME280;32113;42.012;24.870;2023-03-26T16:14:44;98209.88;;;22.29;19.83
46412;BME280;32113;42.012;24.870;2023-03-26T16:17:17;98216.94;;;22.16;19.70
46412;BME280;32113;42.012;24.870;2023-03-26T16:28:15;98230.00;;;21.78;20.28
46412;BME280;32113;42.012;24.870;2023-03-26T16:30:42;98230.22;;;21.75;20.35
46412;BME280;32113;42.012;24.870;2023-03-26T16:33:17;98237.00;;;21.65;20.68
46412;BME280;32113;42.012;24.870;2023-03-26T16:36:02;98236.69;;;21.57;20.55
46412;BME280;32113;42.012;24.870;2023-03-26T16:38:45;98239.75;;;21.50;20.97
46412;BME280;32113;42.012;24.870;2023-03-26T16:41:18;98245.16;;;21.47;21.63
46412;BME280;32113;42.012;24.870;2023-03-26T16:44:19;98239.94;;;21.47;20.89
46412;BME280;32113;42.012;24.870;2023-03-26T16:47:19;98237.97;;;21.38;20.81
46412;BME280;32113;42.012;24.870;2023-03-26T16:50:15;98242.66;;;21.33;20.73
46412;BME280;32113;42.012;24.870;2023-03-26T16:56:05;98243.66;;;21.17;20.99
46412;BME280;32113;42.012;24.870;2023-03-26T16:58:58;98254.09;;;21.17;20.91
46412;BME280;32113;42.012;24.870;2023-03-26T17:01:56;98257.66;;;21.16;21.26
46412;BME280;32113;42.012;24.870;2023-03-26T17:04:28;98260.38;;;21.14;21.36
46412;BME280;32113;42.012;24.870;2023-03-26T17:13:10;98269.25;;;20.84;22.00
46412;BME280;32113;42.012;24.870;2023-03-26T17:21:08;98289.19;;;20.58;21.67
46412;BME280;32113;42.012;24.870;2023-03-26T17:26:17;98292.09;;;20.53;22.15
46412;BME280;32113;42.012;24.870;2023-03-26T17:28:58;98298.06;;;20.55;22.03
46412;BME280;32113;42.012;24.870;2023-03-26T17:31:32;98299.13;;;20.38;22.33
46412;BME280;32113;42.012;24.870;2023-03-26T17:42:28;98317.81;;;19.87;23.01
46412;BME280;32113;42.012;24.870;2023-03-26T17:47:42;98313.38;;;19.74;22.72
46412;BME280;32113;42.012;24.870;2023-03-26T17:50:18;98321.28;;;19.73;22.92
46412;BME280;32113;42.012;24.870;2023-03-26T17:52:59;98326.28;;;19.76;23.52
46412;BME280;32113;42.012;24.870;2023-03-26T17:55:31;98332.97;;;19.80;23.52
46412;BME280;32113;42.012;24.870;2023-03-26T17:58:13;98330.94;;;19.85;23.27
46412;BME280;32113;42.012;24.870;2023-03-26T18:00:44;98327.03;;;19.92;23.13
46412;BME280;32113;42.012;24.870;2023-03-26T18:03:22;98333.91;;;19.93;23.35
46412;BME280;32113;42.012;24.870;2023-03-26T18:06:03;98340.78;;;19.94;23.44
46412;BME280;32113;42.012;24.870;2023-03-26T18:19:07;98337.53;;;19.76;24.06
46412;BME280;32113;42.012;24.870;2023-03-26T18:21:42;98343.38;;;19.65;23.98
46412;BME280;32113;42.012;24.870;2023-03-26T18:24:19;98346.47;;;19.27;23.70
46412;BME280;32113;42.012;24.870;2023-03-26T18:26:55;98348.00;;;19.15;23.88
46412;BME280;32113;42.012;24.870;2023-03-26T18:29:24;98349.53;;;18.87;23.69
46412;BME280;32113;42.012;24.870;2023-03-26T18:31:59;98353.72;;;18.41;23.97
46412;BME280;32113;42.012;24.870;2023-03-26T18:34:27;98350.78;;;17.97;24.16
46412;BME280;32113;42.012;24.870;2023-03-26T18:42:37;98350.31;;;17.20;25.12
46412;BME280;32113;42.012;24.870;2023-03-26T18:45:30;98355.31;;;17.05;25.55
46412;BME280;32113;42.012;24.870;2023-03-26T18:47:59;98345.50;;;16.93;25.86
46412;BME280;32113;42.012;24.870;2023-03-26T18:50:37;98352.94;;;17.01;25.73
46412;BME280;32113;42.012;24.870;2023-03-26T18:53:05;98345.63;;;16.91;25.83
46412;BME280;32113;42.012;24.870;2023-03-26T18:55:34;98351.63;;;16.92;26.08
46412;BME280;32113;42.012;24.870;2023-03-26T19:00:44;98348.75;;;16.42;26.03
46412;BME280;32113;42.012;24.870;2023-03-26T19:03:11;98347.41;;;16.52;26.27
46412;BME280;32113;42.012;24.870;2023-03-26T19:05:39;98341.97;;;16.39;26.05
46412;BME280;32113;42.012;24.870;2023-03-26T19:08:05;98342.16;;;16.35;26.06
46412;BME280;32113;42.012;24.870;2023-03-26T19:10:32;98339.84;;;16.28;26.16
46412;BME280;32113;42.012;24.870;2023-03-26T19:13:00;98337.94;;;16.13;26.39
46412;BME280;32113;42.012;24.870;2023-03-26T19:15:29;98337.13;;;16.12;26.41
46412;BME280;32113;42.012;24.870;2023-03-26T19:17:59;98345.06;;;16.08;26.76
46412;BME280;32113;42.012;24.870;2023-03-26T19:20:43;98347.19;;;15.99;26.83
46412;BME280;32113;42.012;24.870;2023-03-26T19:23:16;98346.97;;;15.83;27.17
46412;BME280;32113;42.012;24.870;2023-03-26T19:25:49;98350.94;;;15.71;27.09